Time;durP1;ratioP1;P1;durP2;ratioP2;P2;SDS_P1;SDS_P2;PMS_P1;PMS_P2;Temp;Humidity;BMP_temperature;BMP_pressure;BME280_temperature;BME280_humidity;BME280_pressure;Samples;Min_cycle;Max_cycle;Signal;HPM_P1;HPM_P2
2020/12/08 00:00:31;;;;;;;108.82;56.28;;;;;;;7.42;65.74;100164.50;5061384;28;20024;-82
2020/12/08 00:02:57;;;;;;;96.45;50.00;;;;;;;7.50;65.54;100177.06;5060065;28;20056;-82
2020/12/08 00:05:23;;;;;;;106.93;55.53;;;;;;;7.46;65.65;100173.91;5059200;28;20036;-81
2020/12/08 00:07:49;;;;;;;99.80;46.45;;;;;;;7.49;65.49;100173.53;5060920;28;20029;-82
2020/12/08 00:10:18;;;;;;;92.93;45.38;;;;;;;7.49;65.43;100168.09;5059364;28;20116;-82
2020/12/08 00:12:45;;;;;;;101.13;46.08;;;;;;;7.52;65.41;100180.38;5060783;28;20036;-81
2020/12/08 00:15:10;;;;;;;104.22;47.35;;;;;;;7.48;65.21;100177.25;5061767;28;20037;-81
2020/12/08 00:17:36;;;;;;;106.68;50.40;;;;;;;7.49;65.33;100188.91;5069095;28;20044;-81
2020/12/08 00:20:02;;;;;;;99.93;55.92;;;;;;;7.46;65.37;100184.72;5073588;28;20543;-82
2020/12/08 00:22:27;;;;;;;109.28;58.50;;;;;;;7.42;65.34;100182.59;5066002;28;20075;-81
2020/12/08 00:24:52;;;;;;;104.13;49.58;;;;;;;7.49;65.16;100184.34;5063247;28;20032;-81
2020/12/08 00:27:18;;;;;;;111.22;54.67;;;;;;;7.46;65.39;100182.03;5063005;28;20063;-82
2020/12/08 00:29:43;;;;;;;112.78;54.17;;;;;;;7.42;65.07;100178.00;5045397;28;20032;-82
2020/12/08 00:32:09;;;;;;;118.45;59.35;;;;;;;7.39;65.16;100183.81;5064114;28;20033;-81
2020/12/08 00:34:36;;;;;;;111.78;60.75;;;;;;;7.14;65.13;100178.75;5063792;28;20075;-80
2020/12/08 00:37:03;;;;;;;114.35;56.67;;;;;;;7.30;65.06;100191.19;5064154;28;20044;-80
2020/12/08 00:39:28;;;;;;;108.60;55.35;;;;;;;7.31;65.05;100197.47;5065664;28;20044;-81
2020/12/08 00:41:53;;;;;;;127.68;63.90;;;;;;;7.06;65.33;100192.41;5074812;28;20036;-80
2020/12/08 00:44:19;;;;;;;114.85;59.00;;;;;;;7.17;65.38;100188.38;5063839;28;20045;-80
2020/12/08 00:46:51;;;;;;;112.90;54.53;;;;;;;7.13;65.41;100196.00;5047926;28;20037;-81
2020/12/08 00:49:17;;;;;;;106.18;56.67;;;;;;;7.08;65.42;100197.59;5062791;28;20478;-83
2020/12/08 00:51:46;;;;;;;125.07;61.65;;;;;;;6.93;65.50;100194.91;5062238;28;20032;-83
2020/12/08 00:54:11;;;;;;;108.13;63.35;;;;;;;6.81;65.35;100198.13;5063173;28;20637;-80
2020/12/08 00:56:39;;;;;;;104.15;58.78;;;;;;;6.73;65.41;100203.59;5059660;28;20056;-82
2020/12/08 00:59:04;;;;;;;106.75;58.00;;;;;;;6.70;65.49;100205.84;5066637;28;20145;-79
2020/12/08 01:01:30;;;;;;;108.82;57.40;;;;;;;6.69;65.61;100206.84;5066125;28;20029;-81
2020/12/08 01:03:56;;;;;;;105.85;63.58;;;;;;;6.85;65.36;100208.56;5065987;28;20036;-79
2020/12/08 01:06:21;;;;;;;109.18;58.80;;;;;;;6.85;65.12;100212.06;5066553;28;20695;-80
2020/12/08 01:08:47;;;;;;;109.97;58.63;;;;;;;6.79;65.34;100221.75;5066306;28;20036;-79
2020/12/08 01:11:12;;;;;;;103.82;51.72;;;;;;;6.87;65.04;100228.09;5066501;28;20445;-80
2020/12/08 01:13:37;;;;;;;99.45;51.60;;;;;;;6.76;65.08;100222.13;5063449;28;20033;-81
2020/12/08 01:16:04;;;;;;;101.50;53.17;;;;;;;6.70;65.33;100217.47;5064788;28;20028;-81
2020/12/08 01:18:30;;;;;;;102.85;50.15;;;;;;;6.78;65.30;100219.25;5067238;28;20826;-81
2020/12/08 01:20:56;;;;;;;99.07;53.45;;;;;;;6.90;65.04;100227.72;5065267;28;20797;-80
2020/12/08 01:23:23;;;;;;;92.63;48.10;;;;;;;6.88;64.77;100225.22;5066001;28;20051;-80
2020/12/08 01:25:49;;;;;;;119.90;65.78;;;;;;;6.88;64.91;100235.19;5066250;28;20021;-83
2020/12/08 01:28:14;;;;;;;109.53;61.85;;;;;;;6.92;65.06;100220.25;5063364;28;20093;-81
2020/12/08 01:30:39;;;;;;;101.75;52.15;;;;;;;6.97;64.93;100232.19;5033245;28;20513;-79
2020/12/08 01:33:05;;;;;;;95.93;53.63;;;;;;;7.02;65.02;100239.75;5062280;28;20044;-81
2020/12/08 01:35:30;;;;;;;101.90;55.78;;;;;;;7.10;65.00;100242.34;5043774;28;20495;-80
2020/12/08 01:37:56;;;;;;;109.10;59.22;;;;;;;7.09;64.90;100243.38;5059805;28;20041;-79
2020/12/08 01:40:21;;;;;;;109.90;55.70;;;;;;;7.15;64.80;100245.34;5032108;28;20066;-80
2020/12/08 01:42:47;;;;;;;108.40;59.00;;;;;;;7.02;64.95;100223.53;5047684;28;20036;-82
2020/12/08 01:45:12;;;;;;;104.35;54.28;;;;;;;7.19;65.00;100242.25;5045029;28;20037;-82
2020/12/08 01:47:38;;;;;;;107.95;58.08;;;;;;;7.23;65.07;100240.81;5028179;28;20053;-82
2020/12/08 01:50:03;;;;;;;103.15;55.67;;;;;;;7.16;65.06;100225.34;5062306;28;20055;-82
2020/12/08 01:52:31;;;;;;;96.72;51.38;;;;;;;7.32;64.96;100242.38;5062952;28;20518;-82
2020/12/08 01:55:02;;;;;;;102.15;55.13;;;;;;;7.28;65.19;100238.41;5061315;28;20040;-81
2020/12/08 01:57:27;;;;;;;99.22;52.95;;;;;;;7.29;64.65;100240.06;5067515;28;20020;-82
2020/12/08 01:59:53;;;;;;;100.65;48.92;;;;;;;7.28;65.00;100238.41;5063822;28;20036;-82
2020/12/08 02:02:18;;;;;;;103.15;57.28;;;;;;;7.34;64.90;100249.31;5073877;28;20476;-82
2020/12/08 02:04:44;;;;;;;107.72;54.53;;;;;;;7.28;64.81;100246.53;5061943;28;20608;-81
2020/12/08 02:07:09;;;;;;;97.00;51.10;;;;;;;7.32;64.66;100254.06;5060058;28;20040;-82
2020/12/08 02:09:36;;;;;;;105.75;57.53;;;;;;;7.28;64.80;100251.94;5062552;28;20052;-82
2020/12/08 02:12:02;;;;;;;120.68;67.07;;;;;;;7.23;64.92;100255.22;5066350;28;20062;-81
2020/12/08 02:14:28;;;;;;;111.75;58.45;;;;;;;7.21;64.71;100253.72;5063514;28;20035;-81
2020/12/08 02:16:53;;;;;;;110.82;58.05;;;;;;;7.26;64.77;100262.94;5048456;28;20436;-82
2020/12/08 02:19:18;;;;;;;104.28;53.17;;;;;;;7.25;65.02;100263.13;5064879;28;20028;-82
2020/12/08 02:21:44;;;;;;;101.22;51.75;;;;;;;7.28;64.81;100263.59;5065189;28;20025;-81
2020/12/08 02:24:09;;;;;;;110.03;61.30;;;;;;;7.21;64.66;100253.72;5066007;28;20053;-82
2020/12/08 02:26:34;;;;;;;110.13;62.35;;;;;;;7.28;64.59;100252.75;5065675;28;20028;-83
2020/12/08 02:29:00;;;;;;;96.68;55.88;;;;;;;7.30;64.87;100257.97;5046743;28;20033;-81
2020/12/08 02:31:25;;;;;;;100.20;56.03;;;;;;;7.34;64.61;100259.28;5064807;28;20490;-82
2020/12/08 02:33:51;;;;;;;94.55;51.35;;;;;;;7.20;64.88;100252.03;5063703;28;20056;-82
2020/12/08 02:36:16;;;;;;;102.47;57.47;;;;;;;7.25;64.69;100263.13;5063987;28;20060;-82
2020/12/08 02:38:42;;;;;;;103.47;56.70;;;;;;;7.25;64.75;100255.84;5066540;28;20163;-82
2020/12/08 02:41:07;;;;;;;108.35;63.42;;;;;;;7.23;65.06;100260.63;5063984;28;20024;-82
2020/12/08 02:43:32;;;;;;;93.70;56.92;;;;;;;7.08;64.54;100270.63;5065472;28;20055;-79
2020/12/08 02:46:02;;;;;;;91.72;56.97;;;;;;;7.03;64.65;100260.34;5064379;28;20037;-81
2020/12/08 02:48:27;;;;;;;95.75;57.47;;;;;;;6.87;64.50;100265.94;5065261;28;20028;-82
2020/12/08 02:50:53;;;;;;;89.03;54.42;;;;;;;7.03;64.30;100260.34;5067229;28;20774;-81
2020/12/08 02:53:18;;;;;;;91.22;57.30;;;;;;;7.06;64.45;100270.78;5046738;28;20048;-81
2020/12/08 02:55:47;;;;;;;86.63;53.03;;;;;;;6.95;64.81;100265.84;5064071;28;20029;-81
2020/12/08 02:58:13;;;;;;;85.43;50.92;;;;;;;7.06;64.41;100264.53;5062948;28;20039;-81
2020/12/08 03:00:39;;;;;;;85.57;52.22;;;;;;;7.09;64.45;100270.41;5064459;28;20037;-82
2020/12/08 03:03:04;;;;;;;92.60;58.75;;;;;;;7.15;64.63;100266.97;5064830;28;20124;-82
2020/12/08 03:05:29;;;;;;;98.25;57.85;;;;;;;7.22;64.54;100264.34;5066440;28;21594;-81
2020/12/08 03:07:55;;;;;;;88.05;50.72;;;;;;;7.25;64.62;100257.72;5060855;28;20573;-81
2020/12/08 03:10:20;;;;;;;96.68;57.00;;;;;;;7.22;64.42;100258.94;5066939;28;20390;-82
2020/12/08 03:12:46;;;;;;;93.80;58.55;;;;;;;7.17;64.28;100253.25;5048256;28;20039;-81
2020/12/08 03:15:11;;;;;;;93.88;55.03;;;;;;;7.21;64.42;100261.81;5066444;28;20029;-81
2020/12/08 03:17:37;;;;;;;88.55;52.38;;;;;;;7.13;64.22;100266.28;5064907;28;20052;-82
2020/12/08 03:20:02;;;;;;;86.22;48.72;;;;;;;7.13;64.36;100260.06;5065119;28;20032;-82
2020/12/08 03:22:27;;;;;;;85.22;52.65;;;;;;;7.14;64.19;100257.16;5064713;28;20082;-82
2020/12/08 03:24:53;;;;;;;89.18;51.08;;;;;;;7.15;64.35;100261.56;5057828;28;21332;-82
2020/12/08 03:27:18;;;;;;;89.68;52.38;;;;;;;6.97;64.11;100259.22;5060288;28;20036;-81
2020/12/08 03:29:44;;;;;;;88.45;51.65;;;;;;;7.04;64.15;100267.44;5062620;28;20029;-81
2020/12/08 03:32:10;;;;;;;90.82;55.45;;;;;;;7.09;63.92;100259.59;5064923;28;20036;-81
2020/12/08 03:34:35;;;;;;;82.15;49.05;;;;;;;7.06;64.63;100259.97;5061318;28;20116;-82
2020/12/08 03:37:01;;;;;;;88.78;54.20;;;;;;;7.07;64.25;100255.41;5061769;28;20128;-80
2020/12/08 03:39:26;;;;;;;88.38;50.72;;;;;;;7.12;64.17;100263.78;5064655;28;20441;-80
2020/12/08 03:41:57;;;;;;;86.10;50.80;;;;;;;7.08;64.08;100257.91;5064807;28;20599;-81
2020/12/08 03:44:22;;;;;;;95.55;56.92;;;;;;;7.10;64.11;100261.25;5063180;28;20103;-81
2020/12/08 03:46:47;;;;;;;91.53;54.28;;;;;;;7.06;64.25;100246.47;5063318;28;20032;-81
2020/12/08 03:49:13;;;;;;;92.18;53.97;;;;;;;7.00;64.51;100247.22;5045222;28;20040;-82
2020/12/08 03:51:38;;;;;;;92.50;53.75;;;;;;;7.11;64.60;100246.72;5064309;28;20078;-84
2020/12/08 03:54:04;;;;;;;84.03;47.92;;;;;;;7.16;63.91;100252.41;5064159;28;20032;-82
2020/12/08 03:56:29;;;;;;;88.72;50.63;;;;;;;7.09;64.00;100247.94;5064515;28;20036;-82
2020/12/08 03:58:54;;;;;;;91.30;52.88;;;;;;;7.09;64.57;100251.50;5065098;28;20036;-82
2020/12/08 04:01:21;;;;;;;83.00;45.75;;;;;;;7.17;64.34;100256.78;5062002;28;20486;-82
2020/12/08 04:03:49;;;;;;;92.40;54.03;;;;;;;7.14;64.34;100259.88;5059766;28;20037;-81
2020/12/08 04:06:15;;;;;;;97.93;57.83;;;;;;;7.08;63.88;100268.72;5063359;28;20038;-82
2020/12/08 04:08:44;;;;;;;98.78;59.78;;;;;;;6.99;64.05;100259.88;5062157;28;20059;-81
2020/12/08 04:11:10;;;;;;;92.55;52.13;;;;;;;6.88;64.22;100267.63;5064070;28;20589;-82
2020/12/08 04:13:36;;;;;;;91.20;48.92;;;;;;;6.88;64.19;100283.84;5065633;28;20047;-80
2020/12/08 04:16:02;;;;;;;103.63;59.30;;;;;;;6.60;64.87;100268.28;5064300;28;20024;-81
2020/12/08 04:18:27;;;;;;;95.88;55.38;;;;;;;6.88;64.69;100278.44;5065433;28;20056;-82
2020/12/08 04:20:53;;;;;;;106.82;64.10;;;;;;;6.84;64.37;100277.97;5064141;28;20066;-80
2020/12/08 04:23:19;;;;;;;95.95;52.58;;;;;;;6.90;64.31;100281.78;5061967;28;20131;-82
2020/12/08 04:25:47;;;;;;;101.90;57.85;;;;;;;6.90;64.34;100284.50;5064102;28;20142;-82
2020/12/08 04:28:12;;;;;;;94.93;57.58;;;;;;;6.85;64.16;100276.94;5063804;28;20123;-82
2020/12/08 04:30:38;;;;;;;90.28;51.22;;;;;;;6.61;64.64;100288.84;5065340;28;20036;-81
2020/12/08 04:33:07;;;;;;;100.95;63.63;;;;;;;6.70;64.46;100287.72;5062100;28;20045;-81
2020/12/08 04:35:33;;;;;;;88.72;48.33;;;;;;;6.71;64.67;100294.00;5064798;28;20044;-81
2020/12/08 04:37:58;;;;;;;89.32;47.97;;;;;;;6.73;64.56;100300.03;5063981;28;20039;-81
2020/12/08 04:40:25;;;;;;;89.38;49.22;;;;;;;6.76;64.75;100307.78;5062800;28;20032;-82
2020/12/08 04:42:54;;;;;;;94.93;50.15;;;;;;;6.85;64.63;100303.97;5063511;28;20051;-80
2020/12/08 04:45:21;;;;;;;92.68;54.58;;;;;;;6.97;64.68;100296.25;5054851;28;20120;-82
2020/12/08 04:47:47;;;;;;;87.47;51.17;;;;;;;7.00;64.50;100293.19;5061917;28;20029;-82
2020/12/08 04:50:14;;;;;;;93.47;51.80;;;;;;;6.99;63.84;100296.91;5067003;28;20122;-81
2020/12/08 04:52:43;;;;;;;88.43;51.15;;;;;;;6.79;63.75;100294.72;5061064;28;20048;-81
2020/12/08 04:55:09;;;;;;;83.78;53.67;;;;;;;6.77;64.31;100309.47;5058207;28;20051;-81
2020/12/08 04:57:35;;;;;;;77.85;44.53;;;;;;;6.81;64.17;100305.34;5061618;28;20033;-81
2020/12/08 05:00:05;;;;;;;82.68;51.28;;;;;;;6.79;64.28;100299.31;5064402;28;20406;-81
2020/12/08 05:02:31;;;;;;;87.00;50.08;;;;;;;6.84;64.27;100317.66;5061950;28;20060;-82
2020/12/08 05:04:56;;;;;;;77.03;47.33;;;;;;;6.87;64.09;100304.63;5062539;28;20040;-82
2020/12/08 05:07:28;;;;;;;81.32;49.75;;;;;;;6.84;64.04;100309.56;5059973;28;20142;-81
2020/12/08 05:09:54;;;;;;;82.70;47.50;;;;;;;6.73;64.20;100308.97;5063883;28;20032;-82
2020/12/08 05:12:24;;;;;;;86.75;54.72;;;;;;;6.86;64.52;100313.78;5065573;28;20045;-82
2020/12/08 05:14:50;;;;;;;78.38;47.75;;;;;;;6.93;64.27;100313.84;5067250;28;20035;-82
2020/12/08 05:17:24;;;;;;;81.70;44.13;;;;;;;6.96;64.08;100308.91;5063896;28;20148;-82
2020/12/08 05:20:10;;;;;;;82.80;50.20;;;;;;;6.91;64.11;100303.22;5067226;28;20032;-81
2020/12/08 05:22:36;;;;;;;79.72;44.60;;;;;;;6.88;64.18;100311.72;5064381;28;20093;-82
2020/12/08 05:25:11;;;;;;;93.25;56.60;;;;;;;7.02;64.23;100318.16;5035296;28;20060;-82
2020/12/08 05:27:37;;;;;;;90.60;54.78;;;;;;;7.02;64.08;100315.44;5069013;28;20029;-82
2020/12/08 05:30:12;;;;;;;97.25;54.92;;;;;;;6.97;64.35;100323.28;5067349;28;20035;-82
2020/12/08 05:32:39;;;;;;;87.60;47.33;;;;;;;7.02;64.31;100311.91;5065444;28;20151;-83
2020/12/08 05:35:10;;;;;;;101.03;54.58;;;;;;;7.03;64.23;100322.53;5065575;28;20097;-81
2020/12/08 05:37:40;;;;;;;99.00;54.15;;;;;;;7.02;64.22;100323.56;5067275;28;20152;-84
2020/12/08 05:40:08;;;;;;;96.28;55.05;;;;;;;6.97;64.66;100326.00;5064037;28;20024;-82
2020/12/08 05:42:36;;;;;;;95.85;57.30;;;;;;;7.05;64.48;100323.19;5064457;28;20402;-81
2020/12/08 05:45:03;;;;;;;94.65;55.70;;;;;;;7.02;64.43;100318.16;5064188;28;20040;-81
2020/12/08 05:47:30;;;;;;;101.57;62.75;;;;;;;6.96;64.60;100308.91;5062843;28;20032;-82
2020/12/08 05:50:02;;;;;;;105.05;61.13;;;;;;;6.95;65.13;100334.28;5064455;28;20044;-82
2020/12/08 05:52:30;;;;;;;103.65;61.53;;;;;;;7.05;64.71;100328.59;5064896;28;20441;-81
2020/12/08 05:55:13;;;;;;;111.18;61.55;;;;;;;7.12;64.70;100331.38;5067356;28;20025;-81
2020/12/08 05:57:39;;;;;;;114.15;68.90;;;;;;;7.09;64.68;100329.91;5067579;28;20575;-80
2020/12/08 06:00:07;;;;;;;100.82;59.50;;;;;;;6.87;65.00;100309.19;5061337;28;20043;-82
2020/12/08 06:02:33;;;;;;;90.25;52.88;;;;;;;7.02;64.88;100336.25;5063081;28;20021;-81
2020/12/08 06:04:59;;;;;;;92.28;53.60;;;;;;;7.02;64.89;100339.78;5064208;28;20036;-82
2020/12/08 06:07:32;;;;;;;91.88;53.22;;;;;;;7.08;64.86;100344.44;5062835;28;20024;-81
2020/12/08 06:10:08;;;;;;;95.00;58.38;;;;;;;7.06;64.67;100337.53;5067043;28;20040;-82
2020/12/08 06:12:34;;;;;;;86.47;54.97;;;;;;;7.02;64.48;100333.53;5065160;28;20032;-81
2020/12/08 06:15:00;;;;;;;98.55;67.38;;;;;;;6.92;65.09;100339.19;5064772;28;20029;-81
2020/12/08 06:17:25;;;;;;;88.95;54.95;;;;;;;6.88;65.01;100337.91;5066177;28;20040;-81
2020/12/08 06:19:50;;;;;;;89.38;54.25;;;;;;;6.86;65.16;100351.59;5062959;28;20918;-81
2020/12/08 06:22:17;;;;;;;91.82;63.78;;;;;;;6.88;65.06;100348.72;5069403;28;20036;-81
2020/12/08 06:24:54;;;;;;;82.72;58.00;;;;;;;6.90;64.83;100346.66;5064292;28;20028;-82
2020/12/08 06:27:23;;;;;;;85.53;54.75;;;;;;;6.85;64.66;100346.38;5065474;28;20107;-82
2020/12/08 06:29:53;;;;;;;85.40;54.30;;;;;;;6.73;64.78;100341.41;5065877;28;20050;-82
2020/12/08 06:32:30;;;;;;;82.30;54.10;;;;;;;6.70;64.72;100354.47;5065209;28;20486;-82
2020/12/08 06:35:12;;;;;;;83.05;55.15;;;;;;;6.61;64.75;100346.44;5074100;28;20688;-82
2020/12/08 06:37:46;;;;;;;79.80;52.45;;;;;;;6.58;64.71;100352.22;5063520;28;20036;-81
2020/12/08 06:40:19;;;;;;;81.90;53.85;;;;;;;6.59;65.03;100344.94;5062588;28;20032;-81
2020/12/08 06:42:48;;;;;;;80.75;56.28;;;;;;;6.40;64.77;100330.09;5065466;28;20029;-81
2020/12/08 06:45:16;;;;;;;75.20;50.55;;;;;;;6.45;64.82;100350.09;5063927;28;20108;-81
2020/12/08 06:47:43;;;;;;;75.75;47.00;;;;;;;6.42;65.02;100361.28;5065105;28;20039;-81
2020/12/08 06:50:29;;;;;;;72.80;47.20;;;;;;;6.37;64.95;100352.06;5057859;28;20643;-81
2020/12/08 06:53:00;;;;;;;81.85;54.15;;;;;;;6.34;65.03;100361.34;5065982;28;20037;-81
2020/12/08 06:55:26;;;;;;;79.35;56.83;;;;;;;6.25;64.98;100354.31;5061103;28;20438;-81
2020/12/08 06:57:53;;;;;;;82.22;56.63;;;;;;;6.28;65.04;100362.91;5065211;28;20028;-81
2020/12/08 07:00:19;;;;;;;84.50;57.53;;;;;;;6.26;65.26;100356.84;5065657;28;20701;-81
2020/12/08 07:02:51;;;;;;;94.90;66.10;;;;;;;6.25;65.36;100357.84;5061041;28;20020;-80
2020/12/08 07:05:44;;;;;;;89.30;58.92;;;;;;;6.24;65.87;100372.41;5076575;28;20036;-81
2020/12/08 07:08:13;;;;;;;92.55;60.72;;;;;;;6.25;65.71;100371.34;5059703;28;20037;-81
2020/12/08 07:10:40;;;;;;;86.00;56.72;;;;;;;6.24;65.46;100372.41;5064697;28;20102;-81
2020/12/08 07:13:14;;;;;;;77.35;54.28;;;;;;;6.26;65.67;100380.31;5064615;28;20028;-81
2020/12/08 07:15:40;;;;;;;79.15;50.88;;;;;;;6.22;65.66;100382.50;5064133;28;20047;-82
2020/12/08 07:18:07;;;;;;;80.13;54.20;;;;;;;6.25;65.57;100389.44;5075948;28;20154;-82
2020/12/08 07:20:34;;;;;;;82.40;60.22;;;;;;;6.22;65.51;100390.63;5062280;28;20029;-82
2020/12/08 07:23:03;;;;;;;83.65;52.60;;;;;;;6.15;65.76;100391.50;5061624;28;20033;-82
2020/12/08 07:25:29;;;;;;;85.63;58.00;;;;;;;6.11;65.89;100384.81;5058415;28;20047;-80
2020/12/08 07:27:54;;;;;;;88.53;56.65;;;;;;;6.20;66.00;100398.06;5061502;28;20033;-81
2020/12/08 07:30:25;;;;;;;82.72;54.97;;;;;;;6.24;65.81;100391.28;5060825;28;20040;-80
2020/12/08 07:32:55;;;;;;;86.28;57.17;;;;;;;6.31;66.13;100402.22;5057870;28;20052;-82
2020/12/08 07:35:22;;;;;;;86.57;55.72;;;;;;;6.33;65.96;100404.72;5058732;28;20056;-80
2020/12/08 07:37:49;;;;;;;91.32;61.45;;;;;;;6.28;65.91;100405.28;5061874;28;20111;-80
2020/12/08 07:40:15;;;;;;;84.85;55.97;;;;;;;6.25;66.05;100406.47;5061057;28;20390;-81
2020/12/08 07:42:51;;;;;;;83.75;53.53;;;;;;;6.27;65.91;100393.63;5064559;28;20040;-81
2020/12/08 07:45:20;;;;;;;76.28;52.20;;;;;;;6.35;66.10;100408.94;5061593;28;20099;-80
2020/12/08 07:47:58;;;;;;;75.82;47.45;;;;;;;6.36;65.99;100407.91;5060360;28;20047;-80
2020/12/08 07:50:29;;;;;;;80.22;50.45;;;;;;;6.32;65.98;100397.63;5057303;28;20040;-81
2020/12/08 07:53:03;;;;;;;81.18;51.97;;;;;;;6.35;66.11;100413.47;5060221;28;20597;-80
2020/12/08 07:55:30;;;;;;;75.07;48.72;;;;;;;6.41;66.00;100408.22;5060751;28;20474;-81
2020/12/08 07:57:56;;;;;;;76.22;52.97;;;;;;;6.37;66.15;100404.19;5060828;28;20040;-80
2020/12/08 08:00:22;;;;;;;79.47;56.38;;;;;;;6.39;65.78;100409.41;5062785;28;20025;-80
2020/12/08 08:02:48;;;;;;;81.40;54.20;;;;;;;6.44;65.97;100407.88;5059449;28;20495;-81
2020/12/08 08:05:14;;;;;;;73.70;47.17;;;;;;;6.45;65.80;100414.94;5061366;28;20039;-81
2020/12/08 08:07:39;;;;;;;71.03;55.42;;;;;;;6.55;65.71;100408.44;5065031;28;20547;-80
2020/12/08 08:10:05;;;;;;;69.50;47.47;;;;;;;6.50;65.87;100405.44;5063098;28;20135;-81
2020/12/08 08:12:30;;;;;;;70.68;50.70;;;;;;;6.54;65.92;100407.63;5060707;28;20394;-80
2020/12/08 08:14:56;;;;;;;64.50;47.10;;;;;;;6.54;65.61;100409.47;5063120;28;20044;-80
2020/12/08 08:17:22;;;;;;;65.88;48.65;;;;;;;6.65;65.80;100406.34;5045269;28;20072;-81
2020/12/08 08:19:47;;;;;;;71.50;54.42;;;;;;;6.67;65.80;100406.16;5062216;28;20025;-80
2020/12/08 08:22:13;;;;;;;64.82;46.20;;;;;;;6.77;65.71;100418.41;5062623;28;20033;-80
2020/12/08 08:24:38;;;;;;;60.05;46.22;;;;;;;6.73;65.89;100402.72;5062565;28;20043;-79
2020/12/08 08:27:03;;;;;;;65.07;50.53;;;;;;;6.81;65.67;100424.28;5061712;28;20047;-80
2020/12/08 08:29:30;;;;;;;65.13;49.33;;;;;;;6.77;65.65;100420.28;5057224;28;20052;-79
2020/12/08 08:31:55;;;;;;;58.45;44.72;;;;;;;6.84;65.70;100421.22;5060981;28;20470;-80
2020/12/08 08:34:20;;;;;;;56.30;41.45;;;;;;;6.94;65.72;100431.78;5042092;28;20063;-80
2020/12/08 08:36:50;;;;;;;60.72;45.10;;;;;;;6.87;65.81;100431.66;5061494;28;20425;-80
2020/12/08 08:39:16;;;;;;;52.28;38.85;;;;;;;6.91;65.69;100430.28;5061988;28;20045;-79
2020/12/08 08:41:41;;;;;;;58.08;38.13;;;;;;;7.01;65.66;100437.28;5061783;28;20386;-79
2020/12/08 08:44:07;;;;;;;55.55;43.70;;;;;;;6.98;65.47;100430.38;5061662;28;20043;-81
2020/12/08 08:46:33;;;;;;;49.22;38.75;;;;;;;6.97;65.96;100431.41;5060485;28;20045;-80
2020/12/08 08:48:58;;;;;;;55.10;39.10;;;;;;;7.03;65.38;100443.34;5057251;28;20478;-80
2020/12/08 08:51:23;;;;;;;54.40;40.45;;;;;;;7.06;65.37;100443.84;5056463;28;20208;-80
2020/12/08 08:53:49;;;;;;;49.80;33.80;;;;;;;7.02;65.40;100447.09;5069680;28;20047;-81
2020/12/08 08:56:17;;;;;;;47.55;34.13;;;;;;;7.05;65.29;100444.03;5060050;28;20086;-80
2020/12/08 08:58:43;;;;;;;53.95;41.95;;;;;;;6.96;65.30;100427.84;5042675;28;20025;-81
2020/12/08 09:01:08;;;;;;;49.88;38.28;;;;;;;6.90;65.23;100434.00;5058888;28;20505;-80
2020/12/08 09:03:34;;;;;;;52.53;34.92;;;;;;;6.88;65.35;100427.09;5071682;28;20047;-80
2020/12/08 09:05:59;;;;;;;52.00;39.08;;;;;;;6.94;65.47;100448.00;5058547;28;20511;-81
2020/12/08 09:08:24;;;;;;;49.85;40.25;;;;;;;7.02;65.46;100453.31;5065044;28;20036;-80
2020/12/08 09:10:51;;;;;;;53.80;43.47;;;;;;;7.03;65.41;100457.72;5059067;28;20028;-81
2020/12/08 09:13:16;;;;;;;56.03;42.28;;;;;;;7.03;65.36;100455.03;5064006;28;20040;-81
2020/12/08 09:15:42;;;;;;;58.17;41.67;;;;;;;7.02;65.38;100441.69;5054095;28;20067;-80
2020/12/08 09:18:08;;;;;;;50.72;37.13;;;;;;;7.04;65.32;100456.69;5057595;28;20074;-80
2020/12/08 09:20:33;;;;;;;50.05;39.25;;;;;;;7.11;65.19;100452.22;5054940;28;20040;-80
2020/12/08 09:22:59;;;;;;;49.58;37.92;;;;;;;7.03;65.44;100455.03;5055490;28;20029;-81
2020/12/08 09:25:27;;;;;;;48.08;36.35;;;;;;;7.25;65.01;100458.69;5057359;28;20032;-81
2020/12/08 09:27:53;;;;;;;52.92;46.50;;;;;;;7.23;65.09;100459.88;5054846;28;20516;-80
2020/12/08 09:30:18;;;;;;;46.20;36.15;;;;;;;7.15;65.11;100445.44;5039233;28;20040;-80
2020/12/08 09:32:43;;;;;;;55.47;43.00;;;;;;;7.34;64.93;100464.88;5058254;28;20101;-82
2020/12/08 09:35:09;;;;;;;47.72;39.47;;;;;;;7.39;64.97;100470.56;5053948;28;20060;-81
2020/12/08 09:37:34;;;;;;;48.92;38.35;;;;;;;7.49;64.93;100471.13;5054748;28;20036;-81
2020/12/08 09:40:00;;;;;;;46.38;35.33;;;;;;;7.51;64.86;100468.25;5051882;28;20055;-81
2020/12/08 09:42:25;;;;;;;50.28;38.05;;;;;;;7.63;64.93;100460.47;5059327;28;20079;-81
2020/12/08 09:44:51;;;;;;;53.10;42.20;;;;;;;7.66;64.76;100471.78;5063551;28;20044;-80
2020/12/08 09:47:16;;;;;;;55.83;40.90;;;;;;;7.67;64.40;100476.16;5058102;28;20032;-80
2020/12/08 09:49:43;;;;;;;52.72;42.10;;;;;;;7.63;64.41;100465.91;5058084;28;20037;-79
2020/12/08 09:52:08;;;;;;;54.67;48.55;;;;;;;7.61;64.55;100462.53;5054235;28;20160;-81
2020/12/08 09:54:34;;;;;;;63.13;50.53;;;;;;;7.74;64.53;100470.88;5057328;28;20487;-81
2020/12/08 09:56:59;;;;;;;54.47;40.65;;;;;;;7.75;64.39;100461.69;5063032;28;20037;-81
2020/12/08 09:59:24;;;;;;;53.72;42.60;;;;;;;7.75;64.32;100466.28;5056343;28;20759;-81
2020/12/08 10:01:50;;;;;;;49.88;42.33;;;;;;;7.77;64.36;100465.06;5057238;28;20037;-80
2020/12/08 10:04:15;;;;;;;48.97;38.47;;;;;;;7.86;64.13;100463.09;5059298;28;20079;-81
2020/12/08 10:06:41;;;;;;;52.45;45.20;;;;;;;7.73;64.11;100455.63;5062043;28;20106;-81
2020/12/08 10:09:07;;;;;;;56.10;43.30;;;;;;;7.79;64.00;100463.00;5058915;28;20040;-81
2020/12/08 10:11:32;;;;;;;52.55;38.22;;;;;;;7.76;64.14;100465.25;5043689;28;20383;-81
2020/12/08 10:13:57;;;;;;;51.15;39.40;;;;;;;7.81;64.02;100460.94;5057213;28;20466;-80
2020/12/08 10:16:24;;;;;;;55.95;40.47;;;;;;;7.79;64.29;100468.41;5061395;28;20672;-80
2020/12/08 10:18:51;;;;;;;46.03;33.50;;;;;;;7.81;64.23;100469.06;5057175;28;20537;-81
2020/12/08 10:21:24;;;;;;;48.33;35.20;;;;;;;7.98;64.01;100458.88;5064387;28;20104;-81
2020/12/08 10:23:51;;;;;;;52.92;35.63;;;;;;;8.02;64.10;100464.78;5056134;28;20033;-81
2020/12/08 10:26:17;;;;;;;53.00;38.40;;;;;;;8.14;63.79;100471.38;5057108;28;20072;-81
2020/12/08 10:28:42;;;;;;;47.00;37.22;;;;;;;8.20;63.89;100467.91;5062704;28;20064;-81
2020/12/08 10:31:08;;;;;;;51.03;39.75;;;;;;;8.34;63.61;100470.75;5056193;28;20391;-81
2020/12/08 10:33:33;;;;;;;53.83;42.47;;;;;;;8.42;63.30;100467.94;5056118;28;20048;-81
2020/12/08 10:36:00;;;;;;;54.47;42.95;;;;;;;8.40;63.30;100472.69;5056734;28;20043;-81
2020/12/08 10:38:26;;;;;;;56.85;42.85;;;;;;;8.45;63.05;100464.88;5054603;28;20138;-81
2020/12/08 10:40:51;;;;;;;56.47;41.85;;;;;;;8.49;62.87;100459.91;5058331;28;20060;-81
2020/12/08 10:43:18;;;;;;;54.50;38.80;;;;;;;8.68;62.42;100474.69;5058076;28;20067;-80
2020/12/08 10:45:44;;;;;;;51.15;41.67;;;;;;;8.72;62.67;100457.03;5055189;28;20031;-81
2020/12/08 10:48:09;;;;;;;60.22;44.15;;;;;;;8.71;62.41;100463.47;5054667;28;20744;-81
2020/12/08 10:50:35;;;;;;;57.47;45.58;;;;;;;8.81;62.38;100457.75;5060185;28;20548;-81
2020/12/08 10:53:00;;;;;;;56.15;42.25;;;;;;;8.77;62.26;100459.97;5056104;28;20024;-80
2020/12/08 10:55:25;;;;;;;48.35;37.75;;;;;;;8.95;62.26;100459.53;5058489;28;20734;-81
2020/12/08 10:57:51;;;;;;;48.47;34.22;;;;;;;8.89;61.89;100455.72;5057204;28;20039;-81
2020/12/08 11:00:16;;;;;;;53.05;40.13;;;;;;;9.09;61.94;100457.75;5056397;28;20497;-80
2020/12/08 11:02:42;;;;;;;52.88;39.95;;;;;;;9.08;61.77;100464.22;5054896;28;20039;-81
2020/12/08 11:05:07;;;;;;;50.38;37.90;;;;;;;9.24;61.48;100463.94;5057387;28;20387;-81
2020/12/08 11:07:34;;;;;;;51.67;35.55;;;;;;;9.30;61.01;100457.72;5063099;28;20094;-81
2020/12/08 11:09:59;;;;;;;54.30;38.13;;;;;;;9.45;60.87;100464.91;5050673;28;20025;-81
2020/12/08 11:12:24;;;;;;;46.55;36.08;;;;;;;9.56;60.96;100449.94;5056508;28;20049;-81